OLYMPUS DIGITAL CAMERA

This is a comprehensive list of finishers since the race was extended 1.2 miles in 2002 to make it a full 50k. Use the quick-links below to jump to a specific gender, year, or age bracket. Use the search field below to explore the data in your own way, or to find results by name.

M F

’16 ’15 ’14 ’13 ’12 ’11 ’10 ’09 ’08 ’07 ’06 ’05 ’04 ’03 ’02
20-29 30-39 40-49 50-59 60-69 70-79 80+

Record Holders Zombierunner Rookie Award Winners
Search:
Sort by:
Run YearFirst NameLast NameGenderAge BracketFinish TimePlaceAward
2010 Leor Pantilat M 20-29 04:16:28 1 Course Record, Category Record
2016 Scott Trummer M 20-29 04:24:10 1 ZombieRunner Rookie Award
2009 Leor Pantilat M 20-29 04:29:45 1
2011 Leor Pantilat M 20-29 04:31:20 1
2010 Gary Gellin M 40-49 04:33:03 2 Category Record
2010 Jean Pommier M 40-49 04:37:49 3
2010 Andrew Sullivan M 40-49 04:38:31 4
2002 Kevin Sawchuk M 30-39 04:39:18 1 Category Record
2007 Jean Pommier M 40-49 04:40:59 1
2016 Troy Howard M 40-49 04:42:57 2
2007 Graham Cooper M 30-39 04:44:03 2
2010 Jay Thomson M 30-39 04:44:49 5 ZombieRunner Rookie Award
2009 Jean Pommier M 40-49 04:45:43 2
2011 Jesse Haynes M 30-39 04:46:12 2
2007 Troy Howard M 30-39 04:47:16 3
2012 Jean Pommier M 40-49 04:49:04 1
2006 Truman Long M 30-39 04:49:32 1
2010 Troy Howard M 30-39 04:49:53 6
2006 Graham Cooper M 30-39 04:50:28 2
2004 Lon Freeman M 20-29 04:51:31 1
2014 Lon Freeman M 30-39 04:52:30 1
2004 Simon Mtuy M 30-39 04:54:22 2
2013 Jean Pommier M 40-49 04:54:38 1
2002 Douglas Gallaher M 30-39 04:55:18 2
2011 Jean Pommier M 40-49 04:55:37 3
2016 Remi Delille M 30-39 04:56:15 3
2016 Jean Pommier M 50-59 04:56:30 4 Category Record
2007 Mark Tanaka M 40-49 04:56:41 4
2003 Simon Mtuy M 30-39 04:57:03 1
2008 Jean Pommier M 40-49 04:57:35 1
2011 Scott McClennan M 30-39 04:58:10 4
2002 Simon Mtuy M 30-39 04:58:26 3
2009 Joseph D'Alessio M 30-39 04:59:02 3
2006 Simon Mtuy M 30-39 04:59:10 3
2002 Jeff Reifers M 30-39 04:59:19 4
2007 Mark Lantz M 40-49 04:59:28 5
2013 John Burton M 40-49 05:01:15 2
2009 Troy Howard M 30-39 05:01:24 4
2010 Kevin Swisher M 30-39 05:01:35 7
2007 Kevin Sawchuk M 40-49 05:01:49 6
2016 Mike Helms M 30-39 05:02:04 5
2010 Peter Fain M 30-39 05:03:23 8
2015 Jean Pommier M 50-59 05:05:14 1
2007 Jed Tukman M 30-39 05:05:34 7
2009 Kevin Swisher M 30-39 05:07:23 7
2014 George Torgun M 30-39 05:08:32 2
2012 Chris Calzetta M 30-39 05:09:09 2
2009 Mark Tanaka M 40-49 05:09:48 8
2009 Ron Gutierrez M 40-49 05:10:37 9
2013 Kevin Sawchuk M 40-49 05:10:54 3
2013 Ian Torrence M 40-49 05:11:01 4
2002 Mike Topper M 40-49 05:11:01 5
2013 Franz Dill M 30-39 05:11:15 5
2012 Marc Laveson M 20-29 05:12:03 3
2006 Mark Tanaka M 30-39 05:13:06 4
2011 Mark Tanaka M 40-49 05:13:25 5
2004 Trevor Nelson M 20-29 05:13:27 3
2014 Kevin Sawchuk M 40-49 05:13:29 3
2006 Mark Lantz M 40-49 05:13:33 5
2014 Erik Wilde M 40-49 05:14:51 4
2010 Ron Gutierrez M 40-49 05:14:53 9
2014 John Burton M 40-49 05:15:33 5
2010 Lee McKinley M 40-49 05:15:37 10
2014 Remi Delille M 30-39 05:16:02 6
2016 William Wright M 30-39 05:16:19 6
2015 Yew Ferrara M 20-29 05:16:38 2
2005 Graham Cooper M 30-39 05:19:02 1
2009 Brian Wyatt M 30-39 05:19:39 10
2008 Kevin Sawchuk M 40-49 05:20:08 2
2003 Brad Lael M 30-39 05:20:14 2
2011 Ron Gutierrez M 40-49 05:21:28 6
2007 Greg Nacco M 40-49 05:21:37 9
2003 Tim Putney M 20-29 05:22:40 3
2005 David Terry M 40-49 05:22:53 2
2004 Michael Uhler M 30-39 05:22:54 4
2014 Jeff Boutte M 50-59 05:23:17 7
2011 Gary Wang M 40-49 05:23:28 7
2012 Kevin Sawchuk M 40-49 05:23:29 4
2012 Ian Torrence M 30-39 05:23:29 4
2013 Enrique Henriquez M 30-39 05:24:15 6
2003 Andy Black M 40-49 05:24:49 4
2008 Mark Tanaka M 40-49 05:25:16 3
2016 John Burton M 40-49 05:25:19 7
2007 Andy Black M 40-49 05:25:39 10
2010 Jonathan Gunderson M 30-39 05:25:41 11
2011 Jeff Boutte M 40-49 05:26:24 8 ZombieRunner Rookie Award
2011 Charles Wickersham M 30-39 05:27:09 9
2010 Jorge Maravilla M 30-39 05:27:19 13
2008 Kevin Swisher M 30-39 05:27:31 4
2003 Joseph McDonald M 40-49 05:27:54 5
2012 Gary Wang M 40-49 05:28:00 6
2002 Tim Putney M 20-29 05:28:04 6
2013 Lee McKinley M 50-59 05:28:06 7
2009 Andrew Sullivan M 40-49 05:28:17 12 ZombieRunner Rookie Award
2006 Eric Chitwood M 20-29 05:28:24 6
2012 John Burton M 30-39 05:28:45 7
2002 Matt Anderson M 40-49 05:29:15 7
2004 Erik Dube M 20-29 05:29:23 7
2011 John Burton M 30-39 05:30:12 10
2005 Michael Uhler M 30-39 05:30:18 3
2009 Sean Lang M 20-29 05:30:22 13
2007 Erik Dube M 30-39 05:30:33 11
2009 Kevin Sawchuk M 40-49 05:30:36 14
2003 Douglas Gallaher M 30-39 05:32:24 6
2014 Andy Belk M 40-49 05:32:34 9
2011 Troy Howard M 30-39 05:32:41 11
2009 Klas Eklof M 30-39 05:32:42 15
2010 Eric Chitwood M 30-39 05:33:59 14
2003 Dana Gard M 50-59 05:33:59 7
2011 Joe Kelso M 30-39 05:34:17 12
2002 Ken Grebenstein M 40-49 05:34:25 8
2003 Jeff Reifers M 40-49 05:34:35 8
2014 Karl Schnaitter M 30-39 05:34:45 10
2015 John Burton M 40-49 05:35:00 3
2002 William Davis M 50-59 05:35:03 9
2009 John Burton M 30-39 05:35:06 16
2007 Lee McKinley M 40-49 05:35:18 14
2005 Mark Tanaka M 30-39 05:35:32 4
2016 Erik Wilde M 40-49 05:35:47 8
2016 Jeff Boutte M 50-59 05:35:56 9
2008 Ron Gutierrez M 40-49 05:36:13 6
2005 Mark Williams M 30-39 05:36:20 5
2012 Adam Seibert M 40-49 05:36:31 8
2009 Pierre-Yves Couteau M 40-49 05:36:49 17
2005 Jim Howard M 50-59 05:37:21 6
2003 Tom Flahavan M 30-39 05:37:35 9
2011 Kenley Gaffke M 30-39 05:37:37 13
2002 Joseph McDonald M 40-49 05:37:42 10
2002 Dapper Don James M 50-59 05:37:42 10
2012 Dusty Davis M 30-39 05:37:43 9
2011 Benjamin Ewers M 40-49 05:37:45 14
2008 Will Gotthardt M 40-49 05:37:45 7
2014 Robert Raymond M 40-49 05:37:51 12
2010 Adam Ray M 40-49 05:37:54 15
2015 Jeff Boutte M 50-59 05:38:20 4
2014 Aaron Steele M 30-39 05:38:21 13
2003 Rick Simonsen M 40-49 05:38:27 10
2008 Gary Wang M 40-49 05:38:53 8
2014 Kent Ryhorchuk M 30-39 05:38:57 14
2009 Simon Mtuy M 30-39 05:38:58 18
2012 Jeff Boutte M 40-49 05:39:08 10
2007 Matt Anderson M 40-49 05:39:08 15
2009 Gary Wang M 40-49 05:39:17 19
2011 Stuart Taylor M 30-39 05:39:22 16
2016 Neil Campbell M 30-39 05:39:24 10
2004 Mike Topper M 40-49 05:39:28 10
2011 Jeff Pflueger M 40-49 05:39:45 17
2010 Eduardo Vazquez M 30-39 05:40:10 16
2002 Luke Wayman M 20-29 05:40:43 13
2011 Lee McKinley M 40-49 05:41:25 18
2003 Jeff Hutson M 30-39 05:41:33 12
2011 Harald Walther M 40-49 05:41:47 19
2010 James Hutson M 40-49 05:41:58 18
2014 Kevin Thayer M 40-49 05:41:59 15
2008 Mark Lantz M 40-49 05:42:02 9
2002 Greg Goldspring M 40-49 05:42:04 15
2011 Will Harper M 30-39 05:42:08 20
2010 Mike Topper M 50-59 05:42:26 19
2006 Jeff Cowling M 40-49 05:42:30 8
2014 Dan Burke M 50-59 05:42:36 16
2008 Simon Mtuy M 30-39 05:42:46 10
2008 Tim Putney M 30-39 05:43:01 11
2012 Kevin Swisher M 30-39 05:43:19 11
2006 Oliver Pohl M 30-39 05:43:35 9
2016 Nico Raffo M 30-39 05:43:50 11
2012 Franz Dill M 30-39 05:44:33 12
2015 Rickey Russell M 30-39 05:44:38 5
2007 Mike Topper M 40-49 05:44:42 16
2009 Tom Riley M 40-49 05:44:44 20
2005 Mike Topper M 40-49 05:44:44 8
2002 Wally Hesseltine M 50-59 05:44:52 16
2014 Tom Riley M 50-59 05:45:23 17
2007 Will Gotthardt M 40-49 05:45:37 17
2011 Jeff Barbier M 40-49 05:45:40 24
2010 John Fors M 40-49 05:45:53 20
2010 Harald Walther M 40-49 05:45:59 21
2010 Dan Burke M 50-59 05:46:02 22
2007 Brian Wyatt M 30-39 05:46:16 18
2013 Dan Burke M 50-59 05:46:18 8
2012 Peter Fain M 40-49 05:46:27 13
2007 Jeff Barbier M 40-49 05:46:29 19
2006 Eric Berkenkotter M 40-49 05:46:41 10
2014 Mat Lounibos M 40-49 05:47:05 18
2003 Al Brosio M 50-59 05:47:13 15
2013 Shahid Ali M 20-29 05:47:25 9
2016 George Cassidy M 30-39 05:47:30 12
2004 Joseph McDonald M 50-59 05:47:36 12
2006 Chihping Fu M 40-49 05:47:37 11
2014 Chris Eide M 30-39 05:47:41 19
2011 Harris Goodman M 40-49 05:47:50 25
2009 Adam Ray M 40-49 05:48:05 21
2013 Mike Topper M 50-59 05:48:41 10
2003 Joe Schieffer M 50-59 05:48:43 16
2007 Jeff Bell M 40-49 05:48:50 20
2014 Kengo Kato M 30-39 05:49:04 20
2005 Andy Black M 40-49 05:49:33 9
2012 Chris Randall M 40-49 05:49:41 14
2013 James Hutson M 40-49 05:50:09 11
2010 Brian Wyatt M 40-49 05:50:11 23
2013 Jeff Boutte M 50-59 05:50:41 12